EDDV

Hannover Airport

Hannover, Germany
METAR EDDV 251850Z VRB01KT CAVOK 09/06 Q1037 NOSIG
Observed Flight Rules
Sep-25 @ 18:50 UTC (42 minutes ago) Visual Flight Rules
Wind Visibility Clouds
Variable at 1 knots 10,000+ meters
  • Clear skies
Temperatures Readings
Current 9°C / 48°F
Dewpoint 6°C / 43°F
Humidity 82%
Altimeter 30.62" Hg
Pressure 1037 hPa
Elevation 54
METAR EDDV 251850Z VRB01KT CAVOK 09/06 Q1037 NOSIG
Observed Flight Rules
Sep-25 @ 18:50 UTC
(42 minutes ago)
VFR
Wind Visibility
Variable at 1 knots 10,000+ meters
Clouds
  • Clear skies
Temperature Dewpoint
9°C / 48°F 6°C / 43°F
Humidity Altimeter Pressure
82% 30.62" Hg 1037 hPa